sensor_id;sensor_type;location;lat;lon;timestamp;P1;durP1;ratioP1;P2;durP2;ratioP2
49978;SDS011;35869;50.990;6.962;2024-02-26T00:04:00;1.75;;;1.00;;
49978;SDS011;35869;50.990;6.962;2024-02-26T00:09:00;2.20;;;0.90;;
49978;SDS011;35869;50.990;6.962;2024-02-26T00:14:00;0.95;;;0.70;;
49978;SDS011;35869;50.990;6.962;2024-02-26T00:19:00;1.73;;;0.90;;
49978;SDS011;35869;50.990;6.962;2024-02-26T00:24:01;1.10;;;0.90;;
49978;SDS011;35869;50.990;6.962;2024-02-26T00:29:01;2.08;;;1.50;;
49978;SDS011;35869;50.990;6.962;2024-02-26T00:34:01;1.23;;;0.90;;
49978;SDS011;35869;50.990;6.962;2024-02-26T00:39:01;1.85;;;0.88;;
49978;SDS011;35869;50.990;6.962;2024-02-26T00:44:01;0.68;;;0.57;;
49978;SDS011;35869;50.990;6.962;2024-02-26T00:49:02;1.10;;;0.75;;
49978;SDS011;35869;50.990;6.962;2024-02-26T00:54:02;2.38;;;0.88;;
49978;SDS011;35869;50.990;6.962;2024-02-26T00:59:02;2.17;;;1.03;;
49978;SDS011;35869;50.990;6.962;2024-02-26T01:04:02;0.47;;;0.47;;
49978;SDS011;35869;50.990;6.962;2024-02-26T01:09:03;2.90;;;0.70;;
49978;SDS011;35869;50.990;6.962;2024-02-26T01:14:03;0.77;;;0.70;;
49978;SDS011;35869;50.990;6.962;2024-02-26T01:19:03;0.75;;;0.70;;
49978;SDS011;35869;50.990;6.962;2024-02-26T01:24:04;1.13;;;0.65;;
49978;SDS011;35869;50.990;6.962;2024-02-26T01:29:04;0.73;;;0.70;;
49978;SDS011;35869;50.990;6.962;2024-02-26T01:34:04;1.42;;;1.00;;
49978;SDS011;35869;50.990;6.962;2024-02-26T01:39:04;1.30;;;0.70;;
49978;SDS011;35869;50.990;6.962;2024-02-26T01:44:05;1.40;;;0.70;;
49978;SDS011;35869;50.990;6.962;2024-02-26T01:49:07;0.90;;;0.60;;
49978;SDS011;35869;50.990;6.962;2024-02-26T01:54:10;1.42;;;0.80;;
49978;SDS011;35869;50.990;6.962;2024-02-26T01:59:11;0.90;;;0.80;;
49978;SDS011;35869;50.990;6.962;2024-02-26T02:04:11;1.37;;;1.00;;
49978;SDS011;35869;50.990;6.962;2024-02-26T02:09:12;0.73;;;0.65;;
49978;SDS011;35869;50.990;6.962;2024-02-26T02:14:12;1.30;;;0.80;;
49978;SDS011;35869;50.990;6.962;2024-02-26T02:19:13;1.02;;;0.80;;
49978;SDS011;35869;50.990;6.962;2024-02-26T02:24:13;1.17;;;0.80;;
49978;SDS011;35869;50.990;6.962;2024-02-26T02:29:14;1.17;;;0.80;;
49978;SDS011;35869;50.990;6.962;2024-02-26T02:34:14;1.23;;;0.57;;
49978;SDS011;35869;50.990;6.962;2024-02-26T02:39:15;1.23;;;0.88;;
49978;SDS011;35869;50.990;6.962;2024-02-26T02:44:15;1.65;;;1.00;;
49978;SDS011;35869;50.990;6.962;2024-02-26T02:49:15;1.13;;;0.70;;
49978;SDS011;35869;50.990;6.962;2024-02-26T02:54:16;0.73;;;0.73;;
49978;SDS011;35869;50.990;6.962;2024-02-26T02:59:16;0.68;;;0.68;;
49978;SDS011;35869;50.990;6.962;2024-02-26T03:04:16;0.93;;;0.83;;
49978;SDS011;35869;50.990;6.962;2024-02-26T03:09:16;0.80;;;0.80;;
49978;SDS011;35869;50.990;6.962;2024-02-26T03:14:17;0.60;;;0.43;;
49978;SDS011;35869;50.990;6.962;2024-02-26T03:19:17;1.58;;;0.93;;
49978;SDS011;35869;50.990;6.962;2024-02-26T03:24:17;5.63;;;0.90;;
49978;SDS011;35869;50.990;6.962;2024-02-26T03:29:17;1.27;;;0.65;;
49978;SDS011;35869;50.990;6.962;2024-02-26T03:34:17;0.57;;;0.57;;
49978;SDS011;35869;50.990;6.962;2024-02-26T03:39:18;1.40;;;1.30;;
49978;SDS011;35869;50.990;6.962;2024-02-26T03:44:18;1.50;;;1.00;;
49978;SDS011;35869;50.990;6.962;2024-02-26T03:49:18;2.72;;;0.90;;
49978;SDS011;35869;50.990;6.962;2024-02-26T03:54:18;0.85;;;0.85;;
49978;SDS011;35869;50.990;6.962;2024-02-26T03:59:19;1.42;;;1.33;;
49978;SDS011;35869;50.990;6.962;2024-02-26T04:04:19;2.50;;;1.27;;
49978;SDS011;35869;50.990;6.962;2024-02-26T04:09:19;1.52;;;0.70;;
49978;SDS011;35869;50.990;6.962;2024-02-26T04:14:19;0.90;;;0.80;;
49978;SDS011;35869;50.990;6.962;2024-02-26T04:19:19;1.52;;;1.13;;
49978;SDS011;35869;50.990;6.962;2024-02-26T04:24:20;2.75;;;1.30;;
49978;SDS011;35869;50.990;6.962;2024-02-26T04:29:20;1.92;;;1.40;;
49978;SDS011;35869;50.990;6.962;2024-02-26T04:34:20;2.08;;;1.27;;
49978;SDS011;35869;50.990;6.962;2024-02-26T04:39:20;1.27;;;1.20;;
49978;SDS011;35869;50.990;6.962;2024-02-26T04:44:20;1.50;;;1.25;;
49978;SDS011;35869;50.990;6.962;2024-02-26T04:49:21;1.50;;;1.40;;
49978;SDS011;35869;50.990;6.962;2024-02-26T04:54:21;4.20;;;2.00;;
49978;SDS011;35869;50.990;6.962;2024-02-26T04:59:21;2.25;;;1.70;;
49978;SDS011;35869;50.990;6.962;2024-02-26T05:04:21;3.72;;;1.92;;
49978;SDS011;35869;50.990;6.962;2024-02-26T05:09:21;3.50;;;1.70;;
49978;SDS011;35869;50.990;6.962;2024-02-26T05:14:21;1.70;;;1.42;;
49978;SDS011;35869;50.990;6.962;2024-02-26T05:19:22;1.73;;;1.50;;
49978;SDS011;35869;50.990;6.962;2024-02-26T05:24:22;3.08;;;1.67;;
49978;SDS011;35869;50.990;6.962;2024-02-26T05:29:22;2.67;;;1.90;;
49978;SDS011;35869;50.990;6.962;2024-02-26T05:34:22;2.75;;;2.20;;
49978;SDS011;35869;50.990;6.962;2024-02-26T05:39:23;3.63;;;1.80;;
49978;SDS011;35869;50.990;6.962;2024-02-26T05:44:23;3.80;;;2.15;;
49978;SDS011;35869;50.990;6.962;2024-02-26T05:49:26;1.83;;;1.60;;
49978;SDS011;35869;50.990;6.962;2024-02-26T05:54:26;3.80;;;1.75;;
49978;SDS011;35869;50.990;6.962;2024-02-26T05:59:27;1.80;;;1.70;;
49978;SDS011;35869;50.990;6.962;2024-02-26T06:04:27;3.22;;;1.83;;
49978;SDS011;35869;50.990;6.962;2024-02-26T06:09:27;2.03;;;1.73;;
49978;SDS011;35869;50.990;6.962;2024-02-26T06:14:27;2.40;;;2.10;;
49978;SDS011;35869;50.990;6.962;2024-02-26T06:19:27;3.75;;;2.33;;
49978;SDS011;35869;50.990;6.962;2024-02-26T06:24:27;2.05;;;1.85;;
49978;SDS011;35869;50.990;6.962;2024-02-26T06:29:28;1.80;;;1.70;;
49978;SDS011;35869;50.990;6.962;2024-02-26T06:34:28;2.15;;;1.95;;
49978;SDS011;35869;50.990;6.962;2024-02-26T06:39:28;3.35;;;2.38;;
49978;SDS011;35869;50.990;6.962;2024-02-26T06:44:28;2.47;;;1.77;;
49978;SDS011;35869;50.990;6.962;2024-02-26T06:49:29;3.85;;;2.45;;
49978;SDS011;35869;50.990;6.962;2024-02-26T06:54:29;2.38;;;2.17;;
49978;SDS011;35869;50.990;6.962;2024-02-26T06:59:29;2.42;;;2.10;;
49978;SDS011;35869;50.990;6.962;2024-02-26T07:04:29;2.35;;;2.15;;
49978;SDS011;35869;50.990;6.962;2024-02-26T07:09:29;2.40;;;2.15;;
49978;SDS011;35869;50.990;6.962;2024-02-26T07:14:30;2.95;;;2.38;;
49978;SDS011;35869;50.990;6.962;2024-02-26T07:19:30;2.92;;;2.42;;
49978;SDS011;35869;50.990;6.962;2024-02-26T07:24:30;2.38;;;2.10;;
49978;SDS011;35869;50.990;6.962;2024-02-26T07:29:30;2.63;;;2.25;;
49978;SDS011;35869;50.990;6.962;2024-02-26T07:34:30;2.60;;;2.40;;
49978;SDS011;35869;50.990;6.962;2024-02-26T07:39:31;2.78;;;2.47;;
49978;SDS011;35869;50.990;6.962;2024-02-26T07:44:32;3.88;;;2.33;;
49978;SDS011;35869;50.990;6.962;2024-02-26T07:49:33;3.03;;;2.25;;
49978;SDS011;35869;50.990;6.962;2024-02-26T07:54:33;2.00;;;1.90;;
49978;SDS011;35869;50.990;6.962;2024-02-26T07:59:33;2.47;;;1.80;;
49978;SDS011;35869;50.990;6.962;2024-02-26T08:04:33;2.90;;;2.42;;
49978;SDS011;35869;50.990;6.962;2024-02-26T08:09:33;2.33;;;2.10;;
49978;SDS011;35869;50.990;6.962;2024-02-26T08:14:34;4.05;;;2.17;;
49978;SDS011;35869;50.990;6.962;2024-02-26T08:19:34;2.53;;;2.03;;
49978;SDS011;35869;50.990;6.962;2024-02-26T08:24:34;1.83;;;1.73;;
49978;SDS011;35869;50.990;6.962;2024-02-26T08:29:34;2.60;;;1.85;;
49978;SDS011;35869;50.990;6.962;2024-02-26T08:34:35;2.60;;;2.37;;
49978;SDS011;35869;50.990;6.962;2024-02-26T08:39:35;1.80;;;1.70;;
49978;SDS011;35869;50.990;6.962;2024-02-26T08:44:35;3.00;;;2.30;;
49978;SDS011;35869;50.990;6.962;2024-02-26T08:49:35;3.28;;;2.53;;
49978;SDS011;35869;50.990;6.962;2024-02-26T08:54:36;2.28;;;2.08;;
49978;SDS011;35869;50.990;6.962;2024-02-26T08:59:36;2.60;;;2.40;;
49978;SDS011;35869;50.990;6.962;2024-02-26T09:04:36;2.47;;;2.28;;
49978;SDS011;35869;50.990;6.962;2024-02-26T09:09:36;2.70;;;2.50;;
49978;SDS011;35869;50.990;6.962;2024-02-26T09:14:37;3.10;;;2.80;;
49978;SDS011;35869;50.990;6.962;2024-02-26T09:19:37;5.20;;;3.20;;
49978;SDS011;35869;50.990;6.962;2024-02-26T09:24:38;2.75;;;2.53;;
49978;SDS011;35869;50.990;6.962;2024-02-26T09:29:38;4.15;;;3.40;;
49978;SDS011;35869;50.990;6.962;2024-02-26T09:34:40;2.88;;;2.53;;
49978;SDS011;35869;50.990;6.962;2024-02-26T09:39:40;3.00;;;2.55;;
49978;SDS011;35869;50.990;6.962;2024-02-26T09:44:40;3.58;;;3.28;;
49978;SDS011;35869;50.990;6.962;2024-02-26T09:49:42;4.03;;;2.78;;
49978;SDS011;35869;50.990;6.962;2024-02-26T09:54:45;3.00;;;2.55;;
49978;SDS011;35869;50.990;6.962;2024-02-26T09:59:47;4.30;;;2.83;;
49978;SDS011;35869;50.990;6.962;2024-02-26T10:04:49;3.90;;;3.35;;
49978;SDS011;35869;50.990;6.962;2024-02-26T10:09:50;4.38;;;2.78;;
49978;SDS011;35869;50.990;6.962;2024-02-26T10:14:50;6.47;;;3.53;;
49978;SDS011;35869;50.990;6.962;2024-02-26T10:19:51;2.70;;;2.50;;
49978;SDS011;35869;50.990;6.962;2024-02-26T10:29:56;3.60;;;3.30;;
49978;SDS011;35869;50.990;6.962;2024-02-26T10:34:56;4.38;;;3.10;;
49978;SDS011;35869;50.990;6.962;2024-02-26T10:39:57;3.35;;;3.05;;
49978;SDS011;35869;50.990;6.962;2024-02-26T10:44:57;5.07;;;3.65;;
49978;SDS011;35869;50.990;6.962;2024-02-26T10:49:58;3.67;;;3.13;;
49978;SDS011;35869;50.990;6.962;2024-02-26T10:55:02;6.83;;;3.93;;
49978;SDS011;35869;50.990;6.962;2024-02-26T11:00:04;4.22;;;3.60;;
49978;SDS011;35869;50.990;6.962;2024-02-26T11:05:05;3.60;;;3.30;;
49978;SDS011;35869;50.990;6.962;2024-02-26T11:10:07;4.35;;;3.95;;
49978;SDS011;35869;50.990;6.962;2024-02-26T11:15:09;3.08;;;2.88;;
49978;SDS011;35869;50.990;6.962;2024-02-26T11:20:09;3.85;;;3.38;;
49978;SDS011;35869;50.990;6.962;2024-02-26T11:25:12;3.72;;;3.42;;
49978;SDS011;35869;50.990;6.962;2024-02-26T11:30:13;3.35;;;3.05;;
49978;SDS011;35869;50.990;6.962;2024-02-26T11:35:15;3.05;;;2.83;;
49978;SDS011;35869;50.990;6.962;2024-02-26T11:40:15;4.13;;;3.67;;
49978;SDS011;35869;50.990;6.962;2024-02-26T11:50:41;3.42;;;3.13;;
49978;SDS011;35869;50.990;6.962;2024-02-26T11:55:42;4.45;;;2.78;;
49978;SDS011;35869;50.990;6.962;2024-02-26T12:00:42;3.20;;;2.90;;
49978;SDS011;35869;50.990;6.962;2024-02-26T12:05:42;3.42;;;3.03;;
49978;SDS011;35869;50.990;6.962;2024-02-26T12:10:43;3.70;;;3.40;;
49978;SDS011;35869;50.990;6.962;2024-02-26T12:15:56;3.88;;;3.47;;
49978;SDS011;35869;50.990;6.962;2024-02-26T12:21:02;4.05;;;3.33;;
49978;SDS011;35869;50.990;6.962;2024-02-26T12:26:05;3.60;;;3.30;;
49978;SDS011;35869;50.990;6.962;2024-02-26T12:31:05;3.92;;;3.53;;
49978;SDS011;35869;50.990;6.962;2024-02-26T12:36:05;3.97;;;3.60;;
49978;SDS011;35869;50.990;6.962;2024-02-26T12:41:06;5.40;;;3.57;;
49978;SDS011;35869;50.990;6.962;2024-02-26T12:46:06;4.22;;;3.80;;
49978;SDS011;35869;50.990;6.962;2024-02-26T12:51:06;3.60;;;3.30;;
49978;SDS011;35869;50.990;6.962;2024-02-26T12:56:07;3.85;;;3.33;;
49978;SDS011;35869;50.990;6.962;2024-02-26T13:01:08;5.10;;;3.17;;
49978;SDS011;35869;50.990;6.962;2024-02-26T13:06:14;4.32;;;3.47;;
49978;SDS011;35869;50.990;6.962;2024-02-26T13:11:15;4.17;;;3.23;;
49978;SDS011;35869;50.990;6.962;2024-02-26T13:16:15;4.03;;;3.73;;
49978;SDS011;35869;50.990;6.962;2024-02-26T13:21:15;4.18;;;3.75;;
49978;SDS011;35869;50.990;6.962;2024-02-26T13:26:17;5.30;;;4.20;;
49978;SDS011;35869;50.990;6.962;2024-02-26T13:31:22;5.03;;;3.47;;
49978;SDS011;35869;50.990;6.962;2024-02-26T13:36:22;6.32;;;3.97;;
49978;SDS011;35869;50.990;6.962;2024-02-26T13:41:23;4.93;;;4.28;;
49978;SDS011;35869;50.990;6.962;2024-02-26T13:46:23;5.93;;;4.53;;
49978;SDS011;35869;50.990;6.962;2024-02-26T13:51:23;4.80;;;4.05;;
49978;SDS011;35869;50.990;6.962;2024-02-26T13:56:24;5.68;;;5.10;;
49978;SDS011;35869;50.990;6.962;2024-02-26T14:01:24;7.72;;;5.50;;
49978;SDS011;35869;50.990;6.962;2024-02-26T14:06:25;6.03;;;4.70;;
49978;SDS011;35869;50.990;6.962;2024-02-26T14:11:25;6.88;;;5.20;;
49978;SDS011;35869;50.990;6.962;2024-02-26T14:16:25;5.93;;;4.90;;
49978;SDS011;35869;50.990;6.962;2024-02-26T14:21:25;8.27;;;5.72;;
49978;SDS011;35869;50.990;6.962;2024-02-26T14:26:26;8.98;;;5.75;;
49978;SDS011;35869;50.990;6.962;2024-02-26T14:31:26;9.30;;;6.38;;
49978;SDS011;35869;50.990;6.962;2024-02-26T14:36:26;7.50;;;5.05;;
49978;SDS011;35869;50.990;6.962;2024-02-26T14:41:26;8.02;;;6.65;;
49978;SDS011;35869;50.990;6.962;2024-02-26T14:46:27;7.93;;;6.22;;
49978;SDS011;35869;50.990;6.962;2024-02-26T14:51:27;9.52;;;6.55;;
49978;SDS011;35869;50.990;6.962;2024-02-26T14:56:27;8.02;;;6.18;;
49978;SDS011;35869;50.990;6.962;2024-02-26T15:01:27;7.18;;;6.22;;
49978;SDS011;35869;50.990;6.962;2024-02-26T15:06:27;9.43;;;6.07;;
49978;SDS011;35869;50.990;6.962;2024-02-26T15:11:28;8.02;;;5.93;;
49978;SDS011;35869;50.990;6.962;2024-02-26T15:16:28;8.93;;;6.30;;
49978;SDS011;35869;50.990;6.962;2024-02-26T15:21:28;13.27;;;8.00;;
49978;SDS011;35869;50.990;6.962;2024-02-26T15:26:29;11.65;;;8.88;;
49978;SDS011;35869;50.990;6.962;2024-02-26T15:31:29;13.10;;;9.38;;
49978;SDS011;35869;50.990;6.962;2024-02-26T15:36:30;13.57;;;11.17;;
49978;SDS011;35869;50.990;6.962;2024-02-26T15:41:30;11.80;;;9.05;;
49978;SDS011;35869;50.990;6.962;2024-02-26T15:46:30;13.63;;;9.57;;
49978;SDS011;35869;50.990;6.962;2024-02-26T15:51:31;10.50;;;8.40;;
49978;SDS011;35869;50.990;6.962;2024-02-26T15:56:31;11.40;;;9.05;;
49978;SDS011;35869;50.990;6.962;2024-02-26T16:01:31;10.48;;;8.15;;
49978;SDS011;35869;50.990;6.962;2024-02-26T16:06:33;11.63;;;9.35;;
49978;SDS011;35869;50.990;6.962;2024-02-26T16:11:37;13.98;;;11.30;;
49978;SDS011;35869;50.990;6.962;2024-02-26T16:16:39;15.73;;;12.82;;
49978;SDS011;35869;50.990;6.962;2024-02-26T16:21:44;13.68;;;10.65;;
49978;SDS011;35869;50.990;6.962;2024-02-26T16:26:44;10.65;;;8.95;;
49978;SDS011;35869;50.990;6.962;2024-02-26T16:31:44;12.55;;;9.93;;
49978;SDS011;35869;50.990;6.962;2024-02-26T16:36:44;14.80;;;11.85;;
49978;SDS011;35869;50.990;6.962;2024-02-26T16:41:44;15.48;;;11.50;;
49978;SDS011;35869;50.990;6.962;2024-02-26T16:46:45;14.68;;;9.88;;
49978;SDS011;35869;50.990;6.962;2024-02-26T16:51:45;11.60;;;8.60;;
49978;SDS011;35869;50.990;6.962;2024-02-26T16:56:45;14.48;;;10.43;;
49978;SDS011;35869;50.990;6.962;2024-02-26T17:01:47;14.93;;;11.67;;
49978;SDS011;35869;50.990;6.962;2024-02-26T17:12:30;12.70;;;10.60;;
49978;SDS011;35869;50.990;6.962;2024-02-26T17:17:31;15.87;;;11.03;;
49978;SDS011;35869;50.990;6.962;2024-02-26T17:22:50;14.73;;;9.68;;
49978;SDS011;35869;50.990;6.962;2024-02-26T17:27:50;12.15;;;9.88;;
49978;SDS011;35869;50.990;6.962;2024-02-26T17:32:51;11.77;;;10.32;;
49978;SDS011;35869;50.990;6.962;2024-02-26T17:37:51;13.05;;;8.65;;
49978;SDS011;35869;50.990;6.962;2024-02-26T17:42:52;9.82;;;7.72;;
49978;SDS011;35869;50.990;6.962;2024-02-26T17:47:52;11.75;;;8.80;;
49978;SDS011;35869;50.990;6.962;2024-02-26T17:52:52;9.93;;;7.18;;
49978;SDS011;35869;50.990;6.962;2024-02-26T17:57:52;7.27;;;6.50;;
49978;SDS011;35869;50.990;6.962;2024-02-26T18:02:53;8.52;;;5.93;;
49978;SDS011;35869;50.990;6.962;2024-02-26T18:07:56;10.47;;;6.13;;
49978;SDS011;35869;50.990;6.962;2024-02-26T18:12:56;6.85;;;5.65;;
49978;SDS011;35869;50.990;6.962;2024-02-26T18:17:57;6.80;;;5.93;;
49978;SDS011;35869;50.990;6.962;2024-02-26T18:22:57;7.88;;;5.60;;
49978;SDS011;35869;50.990;6.962;2024-02-26T18:27:57;5.68;;;4.90;;
49978;SDS011;35869;50.990;6.962;2024-02-26T18:32:57;6.95;;;5.47;;
49978;SDS011;35869;50.990;6.962;2024-02-26T18:37:58;6.75;;;6.05;;
49978;SDS011;35869;50.990;6.962;2024-02-26T18:42:59;7.68;;;6.00;;
49978;SDS011;35869;50.990;6.962;2024-02-26T18:48:01;6.93;;;6.22;;
49978;SDS011;35869;50.990;6.962;2024-02-26T18:53:01;8.30;;;7.50;;
49978;SDS011;35869;50.990;6.962;2024-02-26T18:58:01;11.05;;;8.80;;
49978;SDS011;35869;50.990;6.962;2024-02-26T19:03:02;10.07;;;8.63;;
49978;SDS011;35869;50.990;6.962;2024-02-26T19:08:02;10.30;;;8.53;;
49978;SDS011;35869;50.990;6.962;2024-02-26T19:13:02;9.97;;;8.77;;
49978;SDS011;35869;50.990;6.962;2024-02-26T19:18:03;9.33;;;8.43;;
49978;SDS011;35869;50.990;6.962;2024-02-26T19:23:03;9.57;;;7.85;;
49978;SDS011;35869;50.990;6.962;2024-02-26T19:28:04;9.60;;;8.40;;
49978;SDS011;35869;50.990;6.962;2024-02-26T19:33:04;7.80;;;6.65;;
49978;SDS011;35869;50.990;6.962;2024-02-26T19:38:06;7.90;;;6.63;;
49978;SDS011;35869;50.990;6.962;2024-02-26T19:43:06;7.25;;;6.53;;
49978;SDS011;35869;50.990;6.962;2024-02-26T19:48:07;8.00;;;7.20;;
49978;SDS011;35869;50.990;6.962;2024-02-26T19:53:07;7.65;;;5.63;;
49978;SDS011;35869;50.990;6.962;2024-02-26T19:58:07;7.72;;;6.30;;
49978;SDS011;35869;50.990;6.962;2024-02-26T20:03:07;6.38;;;5.53;;
49978;SDS011;35869;50.990;6.962;2024-02-26T20:08:08;6.68;;;5.45;;
49978;SDS011;35869;50.990;6.962;2024-02-26T20:13:09;6.90;;;5.25;;
49978;SDS011;35869;50.990;6.962;2024-02-26T20:18:09;6.40;;;4.97;;
49978;SDS011;35869;50.990;6.962;2024-02-26T20:23:09;6.63;;;4.45;;
49978;SDS011;35869;50.990;6.962;2024-02-26T20:28:09;5.60;;;4.63;;
49978;SDS011;35869;50.990;6.962;2024-02-26T20:33:10;5.68;;;4.38;;
49978;SDS011;35869;50.990;6.962;2024-02-26T20:38:10;5.65;;;4.35;;
49978;SDS011;35869;50.990;6.962;2024-02-26T20:43:10;6.15;;;4.68;;
49978;SDS011;35869;50.990;6.962;2024-02-26T20:48:10;5.18;;;4.55;;
49978;SDS011;35869;50.990;6.962;2024-02-26T20:53:11;4.13;;;3.72;;
49978;SDS011;35869;50.990;6.962;2024-02-26T20:58:11;5.30;;;4.40;;
49978;SDS011;35869;50.990;6.962;2024-02-26T21:03:12;5.28;;;3.67;;
49978;SDS011;35869;50.990;6.962;2024-02-26T21:13:13;4.32;;;3.85;;
49978;SDS011;35869;50.990;6.962;2024-02-26T21:18:14;6.03;;;4.07;;
49978;SDS011;35869;50.990;6.962;2024-02-26T21:23:14;4.75;;;3.75;;
49978;SDS011;35869;50.990;6.962;2024-02-26T21:28:14;5.22;;;3.92;;
49978;SDS011;35869;50.990;6.962;2024-02-26T21:33:15;5.60;;;3.70;;
49978;SDS011;35869;50.990;6.962;2024-02-26T21:38:15;4.70;;;3.90;;
49978;SDS011;35869;50.990;6.962;2024-02-26T21:43:15;5.00;;;3.63;;
49978;SDS011;35869;50.990;6.962;2024-02-26T21:48:16;5.00;;;3.63;;
49978;SDS011;35869;50.990;6.962;2024-02-26T21:53:16;4.13;;;3.72;;
49978;SDS011;35869;50.990;6.962;2024-02-26T21:58:16;4.20;;;3.55;;
49978;SDS011;35869;50.990;6.962;2024-02-26T22:03:16;5.25;;;3.95;;
49978;SDS011;35869;50.990;6.962;2024-02-26T22:08:18;4.25;;;3.55;;
49978;SDS011;35869;50.990;6.962;2024-02-26T22:13:18;4.45;;;4.05;;
49978;SDS011;35869;50.990;6.962;2024-02-26T22:18:18;5.10;;;4.03;;
49978;SDS011;35869;50.990;6.962;2024-02-26T22:23:18;4.95;;;4.45;;
49978;SDS011;35869;50.990;6.962;2024-02-26T22:28:19;6.55;;;4.40;;
49978;SDS011;35869;50.990;6.962;2024-02-26T22:33:19;6.90;;;5.57;;
49978;SDS011;35869;50.990;6.962;2024-02-26T22:38:19;6.65;;;5.15;;
49978;SDS011;35869;50.990;6.962;2024-02-26T22:43:19;6.93;;;5.18;;
49978;SDS011;35869;50.990;6.962;2024-02-26T22:48:19;6.47;;;4.82;;
49978;SDS011;35869;50.990;6.962;2024-02-26T22:53:20;6.00;;;5.25;;
49978;SDS011;35869;50.990;6.962;2024-02-26T22:58:20;9.02;;;6.03;;
49978;SDS011;35869;50.990;6.962;2024-02-26T23:03:20;8.93;;;6.55;;
49978;SDS011;35869;50.990;6.962;2024-02-26T23:08:20;6.70;;;6.00;;
49978;SDS011;35869;50.990;6.962;2024-02-26T23:13:20;7.45;;;6.43;;
49978;SDS011;35869;50.990;6.962;2024-02-26T23:18:21;6.32;;;5.72;;
49978;SDS011;35869;50.990;6.962;2024-02-26T23:23:21;7.93;;;6.40;;
49978;SDS011;35869;50.990;6.962;2024-02-26T23:28:22;7.07;;;6.38;;
49978;SDS011;35869;50.990;6.962;2024-02-26T23:33:22;10.70;;;6.53;;
49978;SDS011;35869;50.990;6.962;2024-02-26T23:38:22;7.00;;;6.20;;
49978;SDS011;35869;50.990;6.962;2024-02-26T23:43:22;7.30;;;6.30;;
49978;SDS011;35869;50.990;6.962;2024-02-26T23:48:23;8.82;;;6.60;;
49978;SDS011;35869;50.990;6.962;2024-02-26T23:53:23;8.85;;;7.00;;
49978;SDS011;35869;50.990;6.962;2024-02-26T23:58:23;10.25;;;7.68;;
